sensor_id;sensor_type;location;lat;lon;timestamp;pressure;altitude;pressure_sealevel;temperature;humidity
54870;BME280;40756;-37.950;145.008;2023-05-29T00:00:14;101407.21;;;14.45;47.22
54870;BME280;40756;-37.950;145.008;2023-05-29T00:02:44;101417.70;;;13.98;48.30
54870;BME280;40756;-37.950;145.008;2023-05-29T00:05:13;101411.88;;;14.29;48.11
54870;BME280;40756;-37.950;145.008;2023-05-29T00:07:43;101416.71;;;14.41;48.16
54870;BME280;40756;-37.950;145.008;2023-05-29T00:10:13;101419.20;;;14.39;47.57
54870;BME280;40756;-37.950;145.008;2023-05-29T00:12:42;101428.13;;;14.77;47.51
54870;BME280;40756;-37.950;145.008;2023-05-29T00:15:12;101424.79;;;14.68;47.84
54870;BME280;40756;-37.950;145.008;2023-05-29T00:17:41;101432.08;;;14.47;48.23
54870;BME280;40756;-37.950;145.008;2023-05-29T00:20:12;101423.27;;;14.84;47.59
54870;BME280;40756;-37.950;145.008;2023-05-29T00:22:41;101428.09;;;14.91;47.04
54870;BME280;40756;-37.950;145.008;2023-05-29T00:25:11;101423.89;;;15.19;47.08
54870;BME280;40756;-37.950;145.008;2023-05-29T00:27:41;101425.76;;;15.45;46.63
54870;BME280;40756;-37.950;145.008;2023-05-29T00:30:11;101443.73;;;15.13;47.66
54870;BME280;40756;-37.950;145.008;2023-05-29T00:32:41;101447.43;;;15.64;46.77
54870;BME280;40756;-37.950;145.008;2023-05-29T00:35:11;101448.62;;;15.51;46.74
54870;BME280;40756;-37.950;145.008;2023-05-29T00:37:40;101456.33;;;14.93;48.23
54870;BME280;40756;-37.950;145.008;2023-05-29T00:40:11;101455.00;;;15.26;47.12
54870;BME280;40756;-37.950;145.008;2023-05-29T00:42:40;101459.25;;;15.52;46.69
54870;BME280;40756;-37.950;145.008;2023-05-29T00:45:11;101470.68;;;15.48;47.31
54870;BME280;40756;-37.950;145.008;2023-05-29T00:47:41;101474.26;;;14.92;47.57
54870;BME280;40756;-37.950;145.008;2023-05-29T00:50:12;101472.21;;;14.93;48.08
54870;BME280;40756;-37.950;145.008;2023-05-29T00:52:42;101474.78;;;15.34;47.91
54870;BME280;40756;-37.950;145.008;2023-05-29T00:55:12;101475.29;;;14.54;49.20
54870;BME280;40756;-37.950;145.008;2023-05-29T00:57:42;101478.54;;;15.73;47.48
54870;BME280;40756;-37.950;145.008;2023-05-29T01:00:12;101477.67;;;14.46;47.57
54870;BME280;40756;-37.950;145.008;2023-05-29T01:02:43;101485.29;;;14.35;47.18
54870;BME280;40756;-37.950;145.008;2023-05-29T01:05:13;101490.01;;;14.31;48.28
54870;BME280;40756;-37.950;145.008;2023-05-29T01:07:43;101489.16;;;14.87;48.50
54870;BME280;40756;-37.950;145.008;2023-05-29T01:10:13;101490.28;;;14.61;48.89
54870;BME280;40756;-37.950;145.008;2023-05-29T01:12:47;101499.44;;;14.28;49.62
54870;BME280;40756;-37.950;145.008;2023-05-29T01:15:27;101496.39;;;15.05;49.19
54870;BME280;40756;-37.950;145.008;2023-05-29T01:18:11;101505.90;;;14.64;49.45
54870;BME280;40756;-37.950;145.008;2023-05-29T01:20:44;101503.74;;;14.52;49.99
54870;BME280;40756;-37.950;145.008;2023-05-29T01:23:37;101488.60;;;14.22;52.75
54870;BME280;40756;-37.950;145.008;2023-05-29T01:26:17;101476.57;;;14.22;53.37
54870;BME280;40756;-37.950;145.008;2023-05-29T01:28:54;101473.51;;;13.86;53.04
54870;BME280;40756;-37.950;145.008;2023-05-29T01:31:27;101459.73;;;14.23;52.55
54870;BME280;40756;-37.950;145.008;2023-05-29T01:33:58;101455.97;;;14.04;53.65
54870;BME280;40756;-37.950;145.008;2023-05-29T01:36:28;101460.13;;;14.64;53.09
54870;BME280;40756;-37.950;145.008;2023-05-29T01:38:59;101467.50;;;13.84;54.92
54870;BME280;40756;-37.950;145.008;2023-05-29T01:41:30;101465.10;;;14.97;52.95
54870;BME280;40756;-37.950;145.008;2023-05-29T01:44:01;101458.87;;;14.64;52.77
54870;BME280;40756;-37.950;145.008;2023-05-29T01:46:32;101447.60;;;14.45;53.95
54870;BME280;40756;-37.950;145.008;2023-05-29T01:49:02;101434.88;;;15.35;51.25
54870;BME280;40756;-37.950;145.008;2023-05-29T01:51:31;101430.11;;;15.51;50.55
54870;BME280;40756;-37.950;145.008;2023-05-29T01:54:01;101425.82;;;16.24;50.00
54870;BME280;40756;-37.950;145.008;2023-05-29T01:56:32;101424.66;;;16.31;49.54
54870;BME280;40756;-37.950;145.008;2023-05-29T01:59:03;101418.75;;;16.44;48.55
54870;BME280;40756;-37.950;145.008;2023-05-29T02:01:33;101415.98;;;16.48;47.83
54870;BME280;40756;-37.950;145.008;2023-05-29T02:04:03;101413.69;;;16.49;47.59
54870;BME280;40756;-37.950;145.008;2023-05-29T02:06:33;101406.13;;;15.74;47.94
54870;BME280;40756;-37.950;145.008;2023-05-29T02:09:02;101407.87;;;16.16;47.63
54870;BME280;40756;-37.950;145.008;2023-05-29T02:11:31;101415.32;;;17.00;46.46
54870;BME280;40756;-37.950;145.008;2023-05-29T02:14:01;101419.89;;;16.89;45.92
54870;BME280;40756;-37.950;145.008;2023-05-29T02:16:30;101422.70;;;16.55;46.45
54870;BME280;40756;-37.950;145.008;2023-05-29T02:19:00;101422.38;;;17.26;45.79
54870;BME280;40756;-37.950;145.008;2023-05-29T02:21:30;101413.96;;;16.90;45.95
54870;BME280;40756;-37.950;145.008;2023-05-29T02:23:59;101401.19;;;17.19;44.77
54870;BME280;40756;-37.950;145.008;2023-05-29T02:26:29;101390.85;;;17.10;44.65
54870;BME280;40756;-37.950;145.008;2023-05-29T02:28:58;101390.75;;;17.17;43.86
54870;BME280;40756;-37.950;145.008;2023-05-29T02:31:28;101391.95;;;17.29;43.70
54870;BME280;40756;-37.950;145.008;2023-05-29T02:33:57;101395.67;;;17.02;44.48
54870;BME280;40756;-37.950;145.008;2023-05-29T02:36:27;101397.82;;;17.08;43.68
54870;BME280;40756;-37.950;145.008;2023-05-29T02:38:57;101402.11;;;16.24;45.30
54870;BME280;40756;-37.950;145.008;2023-05-29T02:41:26;101403.71;;;16.33;44.48
54870;BME280;40756;-37.950;145.008;2023-05-29T02:43:56;101395.48;;;16.45;43.30
54870;BME280;40756;-37.950;145.008;2023-05-29T02:46:25;101398.60;;;16.50;44.13
54870;BME280;40756;-37.950;145.008;2023-05-29T02:48:56;101401.62;;;16.65;44.39
54870;BME280;40756;-37.950;145.008;2023-05-29T02:51:25;101404.42;;;15.96;45.83
54870;BME280;40756;-37.950;145.008;2023-05-29T02:53:55;101399.43;;;15.90;46.23
54870;BME280;40756;-37.950;145.008;2023-05-29T02:56:24;101386.83;;;16.35;45.24
54870;BME280;40756;-37.950;145.008;2023-05-29T02:58:54;101384.27;;;16.15;45.19
54870;BME280;40756;-37.950;145.008;2023-05-29T03:01:23;101383.61;;;16.44;44.31
54870;BME280;40756;-37.950;145.008;2023-05-29T03:03:53;101379.30;;;16.78;44.09
54870;BME280;40756;-37.950;145.008;2023-05-29T03:06:22;101379.75;;;16.77;43.62
54870;BME280;40756;-37.950;145.008;2023-05-29T03:08:52;101376.08;;;16.96;43.82
54870;BME280;40756;-37.950;145.008;2023-05-29T03:11:22;101378.07;;;16.91;44.08
54870;BME280;40756;-37.950;145.008;2023-05-29T03:13:51;101385.29;;;16.83;43.36
54870;BME280;40756;-37.950;145.008;2023-05-29T03:16:20;101384.97;;;16.59;43.81
54870;BME280;40756;-37.950;145.008;2023-05-29T03:18:50;101387.95;;;16.78;43.18
54870;BME280;40756;-37.950;145.008;2023-05-29T03:21:19;101386.59;;;16.41;43.87
54870;BME280;40756;-37.950;145.008;2023-05-29T03:23:49;101388.76;;;16.35;45.05
54870;BME280;40756;-37.950;145.008;2023-05-29T03:26:19;101393.15;;;16.82;44.92
54870;BME280;40756;-37.950;145.008;2023-05-29T03:28:48;101391.80;;;16.14;46.04
54870;BME280;40756;-37.950;145.008;2023-05-29T03:31:18;101391.19;;;14.97;48.07
54870;BME280;40756;-37.950;145.008;2023-05-29T03:33:48;101392.48;;;15.13;48.97
54870;BME280;40756;-37.950;145.008;2023-05-29T03:36:17;101388.27;;;15.02;48.78
54870;BME280;40756;-37.950;145.008;2023-05-29T03:38:46;101378.87;;;15.99;49.04
54870;BME280;40756;-37.950;145.008;2023-05-29T03:41:16;101384.44;;;16.49;48.28
54870;BME280;40756;-37.950;145.008;2023-05-29T03:43:45;101380.56;;;16.29;47.96
54870;BME280;40756;-37.950;145.008;2023-05-29T03:46:15;101379.75;;;16.37;46.66
54870;BME280;40756;-37.950;145.008;2023-05-29T03:48:44;101388.26;;;16.78;46.55
54870;BME280;40756;-37.950;145.008;2023-05-29T03:51:14;101390.41;;;16.72;47.25
54870;BME280;40756;-37.950;145.008;2023-05-29T03:53:43;101390.09;;;15.46;48.44
54870;BME280;40756;-37.950;145.008;2023-05-29T03:56:13;101391.08;;;16.20;47.92
54870;BME280;40756;-37.950;145.008;2023-05-29T03:58:42;101398.44;;;16.18;47.94
54870;BME280;40756;-37.950;145.008;2023-05-29T04:01:12;101394.50;;;16.09;47.72
54870;BME280;40756;-37.950;145.008;2023-05-29T04:03:42;101390.17;;;15.67;48.71
54870;BME280;40756;-37.950;145.008;2023-05-29T04:06:11;101392.61;;;15.47;48.83
54870;BME280;40756;-37.950;145.008;2023-05-29T04:08:41;101381.15;;;15.73;49.16
54870;BME280;40756;-37.950;145.008;2023-05-29T04:11:10;101379.14;;;15.72;49.26
54870;BME280;40756;-37.950;145.008;2023-05-29T04:13:40;101375.85;;;16.06;49.40
54870;BME280;40756;-37.950;145.008;2023-05-29T04:16:10;101377.47;;;15.63;50.09
54870;BME280;40756;-37.950;145.008;2023-05-29T04:18:39;101377.94;;;16.60;48.34
54870;BME280;40756;-37.950;145.008;2023-05-29T04:21:09;101380.16;;;16.72;48.33
54870;BME280;40756;-37.950;145.008;2023-05-29T04:23:38;101382.45;;;16.59;47.92
54870;BME280;40756;-37.950;145.008;2023-05-29T04:26:08;101380.45;;;16.93;46.19
54870;BME280;40756;-37.950;145.008;2023-05-29T04:28:37;101380.64;;;17.30;46.30
54870;BME280;40756;-37.950;145.008;2023-05-29T04:31:07;101376.43;;;17.28;45.91
54870;BME280;40756;-37.950;145.008;2023-05-29T04:33:36;101383.92;;;17.47;45.85
54870;BME280;40756;-37.950;145.008;2023-05-29T04:36:06;101384.25;;;17.52;45.41
54870;BME280;40756;-37.950;145.008;2023-05-29T04:38:36;101384.83;;;17.28;46.11
54870;BME280;40756;-37.950;145.008;2023-05-29T04:41:06;101386.96;;;17.12;45.61
54870;BME280;40756;-37.950;145.008;2023-05-29T04:43:35;101385.95;;;16.94;46.58
54870;BME280;40756;-37.950;145.008;2023-05-29T04:46:05;101390.50;;;17.30;45.70
54870;BME280;40756;-37.950;145.008;2023-05-29T04:48:34;101399.35;;;16.99;45.57
54870;BME280;40756;-37.950;145.008;2023-05-29T04:51:04;101403.47;;;17.42;45.30
54870;BME280;40756;-37.950;145.008;2023-05-29T04:53:34;101404.08;;;17.19;44.39
54870;BME280;40756;-37.950;145.008;2023-05-29T04:56:04;101404.33;;;17.31;44.08
54870;BME280;40756;-37.950;145.008;2023-05-29T04:58:34;101408.32;;;17.39;43.66
54870;BME280;40756;-37.950;145.008;2023-05-29T05:01:03;101416.77;;;17.14;43.64
54870;BME280;40756;-37.950;145.008;2023-05-29T05:03:33;101417.07;;;16.99;44.03
54870;BME280;40756;-37.950;145.008;2023-05-29T05:06:03;101422.63;;;17.15;44.38
54870;BME280;40756;-37.950;145.008;2023-05-29T05:08:32;101425.35;;;17.00;44.37
54870;BME280;40756;-37.950;145.008;2023-05-29T05:11:02;101427.38;;;17.74;44.06
54870;BME280;40756;-37.950;145.008;2023-05-29T05:13:32;101426.13;;;17.86;43.72
54870;BME280;40756;-37.950;145.008;2023-05-29T05:16:01;101427.56;;;17.40;44.12
54870;BME280;40756;-37.950;145.008;2023-05-29T05:18:31;101432.17;;;17.74;43.11
54870;BME280;40756;-37.950;145.008;2023-05-29T05:21:00;101436.65;;;17.79;43.80
54870;BME280;40756;-37.950;145.008;2023-05-29T05:23:30;101441.62;;;17.36;44.93
54870;BME280;40756;-37.950;145.008;2023-05-29T05:25:59;101445.25;;;17.56;44.14
54870;BME280;40756;-37.950;145.008;2023-05-29T05:28:29;101443.91;;;17.55;44.73
54870;BME280;40756;-37.950;145.008;2023-05-29T05:30:58;101441.96;;;17.19;45.81
54870;BME280;40756;-37.950;145.008;2023-05-29T05:33:28;101438.68;;;17.48;45.65
54870;BME280;40756;-37.950;145.008;2023-05-29T05:35:57;101437.18;;;17.00;46.00
54870;BME280;40756;-37.950;145.008;2023-05-29T05:38:27;101439.68;;;16.61;45.65
54870;BME280;40756;-37.950;145.008;2023-05-29T05:40:56;101450.62;;;15.97;46.84
54870;BME280;40756;-37.950;145.008;2023-05-29T05:43:26;101456.23;;;16.07;47.06
54870;BME280;40756;-37.950;145.008;2023-05-29T05:45:55;101452.25;;;16.95;45.92
54870;BME280;40756;-37.950;145.008;2023-05-29T05:48:25;101452.57;;;16.32;47.44
54870;BME280;40756;-37.950;145.008;2023-05-29T05:50:55;101453.19;;;15.91;48.05
54870;BME280;40756;-37.950;145.008;2023-05-29T05:53:25;101447.01;;;16.39;47.93
54870;BME280;40756;-37.950;145.008;2023-05-29T05:55:55;101443.24;;;16.93;46.68
54870;BME280;40756;-37.950;145.008;2023-05-29T05:58:25;101446.95;;;16.37;47.77
54870;BME280;40756;-37.950;145.008;2023-05-29T06:00:54;101444.62;;;17.48;46.15
54870;BME280;40756;-37.950;145.008;2023-05-29T06:03:24;101445.73;;;16.41;46.00
54870;BME280;40756;-37.950;145.008;2023-05-29T06:05:54;101446.46;;;17.23;45.59
54870;BME280;40756;-37.950;145.008;2023-05-29T06:08:23;101450.26;;;17.23;45.78
54870;BME280;40756;-37.950;145.008;2023-05-29T06:10:53;101455.11;;;16.59;46.24
54870;BME280;40756;-37.950;145.008;2023-05-29T06:13:22;101456.43;;;16.95;46.00
54870;BME280;40756;-37.950;145.008;2023-05-29T06:15:52;101457.09;;;17.29;45.74
54870;BME280;40756;-37.950;145.008;2023-05-29T06:18:21;101458.39;;;16.82;45.91
54870;BME280;40756;-37.950;145.008;2023-05-29T06:20:51;101468.69;;;16.89;45.69
54870;BME280;40756;-37.950;145.008;2023-05-29T06:23:21;101473.95;;;17.11;45.30
54870;BME280;40756;-37.950;145.008;2023-05-29T06:25:50;101465.55;;;16.54;45.70
54870;BME280;40756;-37.950;145.008;2023-05-29T06:28:20;101465.49;;;16.98;44.91
54870;BME280;40756;-37.950;145.008;2023-05-29T06:30:49;101464.61;;;17.14;44.10
54870;BME280;40756;-37.950;145.008;2023-05-29T06:33:19;101466.83;;;17.38;43.19
54870;BME280;40756;-37.950;145.008;2023-05-29T06:35:48;101467.49;;;16.51;44.74
54870;BME280;40756;-37.950;145.008;2023-05-29T06:38:18;101470.47;;;16.39;44.13
54870;BME280;40756;-37.950;145.008;2023-05-29T06:40:47;101467.14;;;16.96;42.56
54870;BME280;40756;-37.950;145.008;2023-05-29T06:43:17;101468.62;;;16.54;44.06
54870;BME280;40756;-37.950;145.008;2023-05-29T06:45:46;101468.03;;;16.45;44.49
54870;BME280;40756;-37.950;145.008;2023-05-29T06:48:16;101466.94;;;16.76;44.89
54870;BME280;40756;-37.950;145.008;2023-05-29T06:50:46;101471.69;;;16.50;44.68
54870;BME280;40756;-37.950;145.008;2023-05-29T06:53:15;101474.53;;;16.88;43.87
54870;BME280;40756;-37.950;145.008;2023-05-29T06:55:45;101477.26;;;16.69;44.54
54870;BME280;40756;-37.950;145.008;2023-05-29T06:58:15;101480.47;;;16.53;45.03
54870;BME280;40756;-37.950;145.008;2023-05-29T07:00:45;101483.70;;;16.82;44.60
54870;BME280;40756;-37.950;145.008;2023-05-29T07:03:14;101487.49;;;16.81;45.14
54870;BME280;40756;-37.950;145.008;2023-05-29T07:05:44;101487.30;;;16.96;44.90
54870;BME280;40756;-37.950;145.008;2023-05-29T07:08:13;101479.29;;;15.83;44.28
54870;BME280;40756;-37.950;145.008;2023-05-29T07:10:43;101484.94;;;16.28;43.85
54870;BME280;40756;-37.950;145.008;2023-05-29T07:13:15;101492.36;;;16.31;44.93
54870;BME280;40756;-37.950;145.008;2023-05-29T07:15:45;101493.39;;;16.12;43.27
54870;BME280;40756;-37.950;145.008;2023-05-29T07:18:14;101498.78;;;15.98;44.84
54870;BME280;40756;-37.950;145.008;2023-05-29T07:20:44;101504.74;;;16.09;44.42
54870;BME280;40756;-37.950;145.008;2023-05-29T07:23:13;101506.64;;;16.23;43.53
54870;BME280;40756;-37.950;145.008;2023-05-29T07:25:43;101498.32;;;16.34;42.96
54870;BME280;40756;-37.950;145.008;2023-05-29T07:28:13;101503.96;;;16.36;43.65
54870;BME280;40756;-37.950;145.008;2023-05-29T07:30:42;101510.51;;;15.93;43.47
54870;BME280;40756;-37.950;145.008;2023-05-29T07:33:12;101514.74;;;16.20;43.13
54870;BME280;40756;-37.950;145.008;2023-05-29T07:35:41;101520.76;;;16.11;43.33
54870;BME280;40756;-37.950;145.008;2023-05-29T07:38:11;101534.80;;;15.86;43.87
54870;BME280;40756;-37.950;145.008;2023-05-29T07:40:41;101540.39;;;15.96;43.40
54870;BME280;40756;-37.950;145.008;2023-05-29T07:43:10;101544.91;;;16.11;43.24
54870;BME280;40756;-37.950;145.008;2023-05-29T07:45:40;101548.88;;;15.91;44.41
54870;BME280;40756;-37.950;145.008;2023-05-29T07:48:09;101555.68;;;16.18;43.45
54870;BME280;40756;-37.950;145.008;2023-05-29T07:50:39;101558.51;;;16.35;43.34
54870;BME280;40756;-37.950;145.008;2023-05-29T07:53:09;101561.74;;;17.00;42.97
54870;BME280;40756;-37.950;145.008;2023-05-29T07:55:38;101572.83;;;16.38;42.60
54870;BME280;40756;-37.950;145.008;2023-05-29T07:58:08;101573.70;;;16.28;43.38
54870;BME280;40756;-37.950;145.008;2023-05-29T08:00:38;101574.49;;;16.84;42.64
54870;BME280;40756;-37.950;145.008;2023-05-29T08:03:08;101572.60;;;16.79;42.43
54870;BME280;40756;-37.950;145.008;2023-05-29T08:05:37;101575.29;;;16.63;42.66
54870;BME280;40756;-37.950;145.008;2023-05-29T08:08:06;101575.62;;;16.35;44.36
54870;BME280;40756;-37.950;145.008;2023-05-29T08:10:36;101576.67;;;16.46;43.66
54870;BME280;40756;-37.950;145.008;2023-05-29T08:13:05;101576.60;;;16.50;42.97
54870;BME280;40756;-37.950;145.008;2023-05-29T08:15:35;101584.77;;;16.90;42.11
54870;BME280;40756;-37.950;145.008;2023-05-29T08:18:04;101587.85;;;16.78;41.63
54870;BME280;40756;-37.950;145.008;2023-05-29T08:20:34;101596.91;;;16.79;42.39
54870;BME280;40756;-37.950;145.008;2023-05-29T08:23:04;101601.50;;;16.57;40.84
54870;BME280;40756;-37.950;145.008;2023-05-29T08:25:33;101608.52;;;16.13;41.66
54870;BME280;40756;-37.950;145.008;2023-05-29T08:28:03;101616.54;;;16.59;41.67
54870;BME280;40756;-37.950;145.008;2023-05-29T08:30:32;101623.59;;;16.52;40.99
54870;BME280;40756;-37.950;145.008;2023-05-29T08:33:02;101631.54;;;16.42;41.50
54870;BME280;40756;-37.950;145.008;2023-05-29T08:35:31;101639.80;;;16.04;42.69
54870;BME280;40756;-37.950;145.008;2023-05-29T08:38:01;101639.99;;;16.18;43.27
54870;BME280;40756;-37.950;145.008;2023-05-29T08:40:31;101642.53;;;16.07;42.94
54870;BME280;40756;-37.950;145.008;2023-05-29T08:43:06;101647.16;;;16.22;42.63
54870;BME280;40756;-37.950;145.008;2023-05-29T08:45:42;101648.81;;;15.54;44.44
54870;BME280;40756;-37.950;145.008;2023-05-29T08:48:13;101650.31;;;16.01;44.15
54870;BME280;40756;-37.950;145.008;2023-05-29T08:50:45;101654.86;;;15.71;45.19
54870;BME280;40756;-37.950;145.008;2023-05-29T08:53:15;101658.70;;;16.01;45.00
54870;BME280;40756;-37.950;145.008;2023-05-29T08:55:44;101659.19;;;15.90;45.26
54870;BME280;40756;-37.950;145.008;2023-05-29T08:58:14;101659.00;;;15.78;45.32
54870;BME280;40756;-37.950;145.008;2023-05-29T09:00:46;101662.48;;;15.88;45.66
54870;BME280;40756;-37.950;145.008;2023-05-29T09:03:16;101664.62;;;15.70;45.80
54870;BME280;40756;-37.950;145.008;2023-05-29T09:05:46;101662.98;;;15.68;46.71
54870;BME280;40756;-37.950;145.008;2023-05-29T09:08:17;101663.90;;;15.65;47.43
54870;BME280;40756;-37.950;145.008;2023-05-29T09:10:46;101662.18;;;16.62;46.98
54870;BME280;40756;-37.950;145.008;2023-05-29T09:13:15;101659.80;;;16.61;45.57
54870;BME280;40756;-37.950;145.008;2023-05-29T09:15:45;101656.51;;;16.87;45.25
54870;BME280;40756;-37.950;145.008;2023-05-29T09:18:18;101659.39;;;16.40;46.12
54870;BME280;40756;-37.950;145.008;2023-05-29T09:20:47;101657.99;;;16.30;45.42
54870;BME280;40756;-37.950;145.008;2023-05-29T09:23:19;101658.92;;;16.23;45.93
54870;BME280;40756;-37.950;145.008;2023-05-29T09:25:53;101658.46;;;16.43;45.81
54870;BME280;40756;-37.950;145.008;2023-05-29T09:28:23;101656.87;;;16.37;45.87
54870;BME280;40756;-37.950;145.008;2023-05-29T09:30:52;101657.06;;;16.24;45.63
54870;BME280;40756;-37.950;145.008;2023-05-29T09:33:22;101656.31;;;16.29;45.72
54870;BME280;40756;-37.950;145.008;2023-05-29T09:35:52;101649.74;;;16.66;45.65
54870;BME280;40756;-37.950;145.008;2023-05-29T09:38:21;101650.92;;;16.63;45.62
54870;BME280;40756;-37.950;145.008;2023-05-29T09:40:51;101655.71;;;16.03;45.29
54870;BME280;40756;-37.950;145.008;2023-05-29T09:43:20;101659.84;;;16.32;45.84
54870;BME280;40756;-37.950;145.008;2023-05-29T09:45:51;101662.35;;;16.52;45.80
54870;BME280;40756;-37.950;145.008;2023-05-29T09:48:23;101666.43;;;16.45;45.92
54870;BME280;40756;-37.950;145.008;2023-05-29T09:50:53;101667.37;;;15.97;45.82
54870;BME280;40756;-37.950;145.008;2023-05-29T09:53:24;101665.20;;;16.16;46.17
54870;BME280;40756;-37.950;145.008;2023-05-29T09:55:56;101667.28;;;15.95;46.22
54870;BME280;40756;-37.950;145.008;2023-05-29T09:58:26;101674.38;;;15.57;46.76
54870;BME280;40756;-37.950;145.008;2023-05-29T10:00:56;101676.66;;;16.06;46.04
54870;BME280;40756;-37.950;145.008;2023-05-29T10:03:26;101680.53;;;16.42;46.71
54870;BME280;40756;-37.950;145.008;2023-05-29T10:05:56;101681.33;;;15.99;47.31
54870;BME280;40756;-37.950;145.008;2023-05-29T10:08:26;101678.88;;;16.19;47.18
54870;BME280;40756;-37.950;145.008;2023-05-29T10:11:01;101676.94;;;16.26;47.06
54870;BME280;40756;-37.950;145.008;2023-05-29T10:13:34;101671.25;;;16.21;47.29
54870;BME280;40756;-37.950;145.008;2023-05-29T10:16:06;101668.98;;;16.30;47.17
54870;BME280;40756;-37.950;145.008;2023-05-29T10:18:39;101670.15;;;16.20;47.01
54870;BME280;40756;-37.950;145.008;2023-05-29T10:21:12;101674.32;;;16.26;46.99
54870;BME280;40756;-37.950;145.008;2023-05-29T10:23:46;101676.65;;;16.57;46.90
54870;BME280;40756;-37.950;145.008;2023-05-29T10:26:21;101673.51;;;16.37;47.03
54870;BME280;40756;-37.950;145.008;2023-05-29T10:29:02;101675.74;;;16.61;47.22
54870;BME280;40756;-37.950;145.008;2023-05-29T10:31:39;101669.64;;;16.50;47.70
54870;BME280;40756;-37.950;145.008;2023-05-29T10:34:21;101670.91;;;16.25;47.90
54870;BME280;40756;-37.950;145.008;2023-05-29T10:37:01;101667.45;;;16.56;48.67
54870;BME280;40756;-37.950;145.008;2023-05-29T10:39:32;101667.32;;;16.65;47.65
54870;BME280;40756;-37.950;145.008;2023-05-29T10:42:02;101666.68;;;16.45;47.88
54870;BME280;40756;-37.950;145.008;2023-05-29T10:45:10;101667.53;;;16.30;48.16
54870;BME280;40756;-37.950;145.008;2023-05-29T10:47:39;101663.69;;;16.20;48.39
54870;BME280;40756;-37.950;145.008;2023-05-29T10:50:10;101665.82;;;15.93;48.81
54870;BME280;40756;-37.950;145.008;2023-05-29T10:52:47;101668.55;;;16.26;48.02
54870;BME280;40756;-37.950;145.008;2023-05-29T10:55:17;101672.06;;;16.41;47.04
54870;BME280;40756;-37.950;145.008;2023-05-29T10:57:48;101674.30;;;15.73;46.88
54870;BME280;40756;-37.950;145.008;2023-05-29T11:00:19;101673.67;;;16.23;46.25
54870;BME280;40756;-37.950;145.008;2023-05-29T11:02:51;101672.36;;;16.09;46.67
54870;BME280;40756;-37.950;145.008;2023-05-29T11:05:22;101674.62;;;16.04;45.17
54870;BME280;40756;-37.950;145.008;2023-05-29T11:07:58;101677.65;;;15.94;44.63
54870;BME280;40756;-37.950;145.008;2023-05-29T11:10:45;101677.51;;;16.09;44.47
54870;BME280;40756;-37.950;145.008;2023-05-29T11:13:27;101680.48;;;15.97;44.47
54870;BME280;40756;-37.950;145.008;2023-05-29T11:16:13;101684.42;;;15.87;44.43
54870;BME280;40756;-37.950;145.008;2023-05-29T11:18:44;101681.74;;;15.94;44.14
54870;BME280;40756;-37.950;145.008;2023-05-29T11:21:30;101682.91;;;15.81;44.45
54870;BME280;40756;-37.950;145.008;2023-05-29T11:24:02;101682.87;;;16.11;44.10
54870;BME280;40756;-37.950;145.008;2023-05-29T11:26:32;101681.06;;;16.28;44.41
54870;BME280;40756;-37.950;145.008;2023-05-29T11:29:04;101680.28;;;15.78;44.73
54870;BME280;40756;-37.950;145.008;2023-05-29T11:31:34;101678.70;;;16.14;44.38
54870;BME280;40756;-37.950;145.008;2023-05-29T11:34:04;101675.09;;;16.01;44.13
54870;BME280;40756;-37.950;145.008;2023-05-29T11:36:38;101674.51;;;15.90;44.26
54870;BME280;40756;-37.950;145.008;2023-05-29T11:39:10;101668.43;;;15.77;44.15
54870;BME280;40756;-37.950;145.008;2023-05-29T11:41:39;101664.68;;;16.07;43.96
54870;BME280;40756;-37.950;145.008;2023-05-29T11:44:08;101659.95;;;16.09;43.54
54870;BME280;40756;-37.950;145.008;2023-05-29T11:46:42;101656.17;;;16.12;43.55
54870;BME280;40756;-37.950;145.008;2023-05-29T11:49:12;101657.92;;;15.47;44.05
54870;BME280;40756;-37.950;145.008;2023-05-29T11:51:43;101652.26;;;15.56;44.10
54870;BME280;40756;-37.950;145.008;2023-05-29T11:54:14;101653.50;;;15.17;44.46
54870;BME280;40756;-37.950;145.008;2023-05-29T11:56:48;101658.99;;;15.62;44.49
54870;BME280;40756;-37.950;145.008;2023-05-29T11:59:17;101660.69;;;15.65;44.36
54870;BME280;40756;-37.950;145.008;2023-05-29T12:01:47;101664.70;;;15.49;44.34
54870;BME280;40756;-37.950;145.008;2023-05-29T12:04:18;101665.35;;;15.74;44.30
54870;BME280;40756;-37.950;145.008;2023-05-29T12:06:48;101666.98;;;15.29;44.42
54870;BME280;40756;-37.950;145.008;2023-05-29T12:09:33;101667.41;;;15.55;44.55
54870;BME280;40756;-37.950;145.008;2023-05-29T12:12:04;101676.55;;;15.21;45.41
54870;BME280;40756;-37.950;145.008;2023-05-29T12:14:35;101679.12;;;15.35;44.64
54870;BME280;40756;-37.950;145.008;2023-05-29T12:17:04;101678.98;;;15.36;44.52
54870;BME280;40756;-37.950;145.008;2023-05-29T12:19:33;101677.42;;;15.53;44.32
54870;BME280;40756;-37.950;145.008;2023-05-29T12:22:03;101673.79;;;15.57;44.66
54870;BME280;40756;-37.950;145.008;2023-05-29T12:24:33;101668.80;;;15.48;44.41
54870;BME280;40756;-37.950;145.008;2023-05-29T12:27:06;101670.57;;;15.74;44.29
54870;BME280;40756;-37.950;145.008;2023-05-29T12:29:36;101666.26;;;15.48;44.70
54870;BME280;40756;-37.950;145.008;2023-05-29T12:32:10;101667.47;;;15.61;44.57
54870;BME280;40756;-37.950;145.008;2023-05-29T12:34:40;101670.31;;;15.52;44.60
54870;BME280;40756;-37.950;145.008;2023-05-29T12:37:11;101669.27;;;15.62;44.55